Station: Oenpelli Airport  

  Atmospheric Gas Attenuation - ITU Rec 676-11   ----------------- dB/100km -----------------
Date Time Temp RH % AH g/m3 Dew Point Wind Direction Speed kph Gust kph Barometer mB Rainfall Since 9am 24GHz 47GHz 76GHz 122GHz 134GHz 241GHz
01/09 14:20 33.8 21 7.8 8.4 19 32 1014.5 0 17.0 19.9 28.8 75.4 68.8 236.9
01/09 14:10 34.5 20 7.71 8.3 13 20 1014.6 0 16.8 19.6 28.3 74.0 67.3 231.9
01/09 14:00 33.9 21 7.84 8.5 17 30 1014.8 0 17.1 19.9 28.9 75.6 69.1 238.1
01/09 13:50 34.1 22 8.3 9.4 17 24 1014.9 0 18.0 20.5 30.2 79.1 73.5 253.6
01/09 13:40 33.9 22 8.22 9.2 15 24 1015.1 0 17.9 20.4 30.0 78.7 72.9 251.4
01/09 13:30 34.1 22 8.3 9.4 9 19 1015.3 0 18.0 20.5 30.2 79.2 73.5 253.6
01/09 13:20 33.9 22 8.22 9.2 15 28 1015.5 0 17.9 20.4 30.1 78.7 72.9 251.5
01/09 13:10 33.8 22 8.17 9.1 15 24 1015.7 0 17.8 20.4 30.0 78.4 72.5 250.1
01/09 13:00 33.5 23 8.41 9.5 15 26 1015.9 0 18.3 20.7 30.8 80.7 75.2 259.5
01/09 12:50 33.8 23 8.54 9.8 17 28 1016.1 0 18.5 20.9 31.1 81.5 76.3 263.2
01/09 12:40 33.7 23 8.5 9.7 13 28 1016.3 0 18.5 20.8 31.0 81.3 76.0 262.1
01/09 12:30 34.1 22 8.3 9.4 17 30 1016.6 0 18.0 20.5 30.3 79.3 73.6 253.9
01/09 12:20 32.9 25 8.86 10.3 13 22 1016.8 0 19.2 21.5 32.5 85.1 80.5 277.8
01/09 12:10 32.8 25 8.81 10.2 15 28 1017.1 0 19.1 21.4 32.3 84.8 80.1 276.4
01/09 12:00 33.2 24 8.64 9.9 20 32 1017.3 0 18.8 21.1 31.7 83.0 77.9 269.0
01/09 11:50 33.4 24 8.73 10.1 15 26 1017.4 0 18.9 21.2 31.9 83.6 78.7 271.6
01/09 11:40 33.3 24 8.68 10 17 28 1017.7 0 18.9 21.2 31.8 83.3 78.3 270.2
01/09 11:30 33 25 8.9 10.4 15 22 1017.9 0 19.3 21.5 32.6 85.4 80.8 279.1
01/09 11:20 32.8 27 9.51 11.3 15 26 1018.1 0 20.6 22.4 34.6 90.8 87.5 302.3
01/09 11:10 32.1 28 9.51 11.3 15 26 1018.3 0 20.6 22.6 34.9 91.6 88.2 304.9
01/09 11:00 32.6 28 9.76 11.7 19 30 1018.6 0 21.1 22.8 35.5 93.3 90.4 312.5
01/09 10:50 32 29 9.79 11.7 17 26 1018.8 0 21.2 23.0 35.9 94.2 91.4 316.0
01/09 10:40 31.6 29 9.59 11.4 15 24 1019 0 20.8 22.8 35.4 92.9 89.7 310.0
01/09 10:30 31.4 29 9.48 11.2 19 28 1019.1 0 20.6 22.7 35.1 92.2 88.7 306.6
01/09 10:20 31.2 29 9.38 11.1 15 26 1019.3 0 20.4 22.6 34.9 91.6 87.9 303.6
01/09 10:10 31.1 31 9.98 12 17 26 1019.4 0 21.6 23.5 36.9 97.0 94.5 326.9
01/09 10:00 31 31 9.92 11.9 17 28 1019.5 0 21.5 23.4 36.8 96.6 94.0 325.0
01/09 09:50 30.5 31 9.66 11.5 19 30 1019.5 0 21.0 23.2 36.1 94.8 91.7 316.9
01/09 09:40 30.3 32 9.86 11.8 17 24 1019.5 0 21.4 23.5 36.9 96.9 94.1 325.5
01/09 09:30 29.8 33 9.9 11.8 17 24 1019.4 0 21.5 23.7 37.2 97.8 95.2 329.0
01/09 09:20 29.7 34 10.15 12.2 17 24 1019.4 0 22.0 24.1 38.1 100.2 98.1 339.2
01/09 09:10 29.3 35 10.22 12.3 15 20 1019.4 0 22.2 24.3 38.6 101.3 99.4 343.7
01/09 09:00 29 37 10.63 12.8 15 20 1019.4 0 23.1 24.9 40.1 105.5 104.4 361.4
01/09 08:50 28.6 40 11.24 13.7 13 19 1019.3 0 24.4 25.9 42.5 111.9 112.1 388.2
01/09 08:40 28.2 42 11.55 14.1 11 17 1019.2 0 25.0 26.5 43.9 115.4 116.4 403.1
01/09 08:30 27.1 47 12.16 14.8 9 13 1019.1 0 26.4 27.7 46.7 123.1 125.5 434.9
01/09 08:20 26.2 53 13.05 15.9 6 9 1019 0 28.3 29.4 50.7 133.7 138.3 479.5
01/09 08:10 24.1 67 14.66 17.6 0 2 1018.9 0 31.8 32.8 58.8 155.1 164.0 569.0
01/09 08:00 23.6 70 14.89 17.8 2 4 1019 0 32.3 33.4 60.2 158.8 168.4 584.1
01/09 07:50 24.1 68 14.88 17.8 4 7 1018.8 0 32.3 33.2 59.7 157.6 167.1 579.7
01/09 07:40 23.5 72 15.23 18.2 0 0 1018.8 0 33.1 34.0 61.7 162.9 173.4 601.6
01/09 07:30 21.8 77 14.77 17.6 0 0 1018.7 0 32.2 33.9 61.0 161.1 170.6 591.7
01/09 07:20 21 81 14.84 17.6 0 0 1018.6 0 32.4 34.3 62.0 163.6 173.4 601.4
01/09 07:10 20.1 83 14.43 17.1 0 0 1018.4 0 31.6 33.9 60.8 160.6 169.4 587.4
01/09 07:00 19.8 82 14 16.6 0 0 1018.4 0 30.7 33.3 59.2 156.1 163.8 567.7
01/09 06:50 19.7 82 13.92 16.5 0 0 1018.3 0 30.6 33.2 58.9 155.3 162.9 564.4
01/09 06:40 19.9 80 13.74 16.3 0 0 1018.2 0 30.2 32.8 57.9 152.8 159.8 553.8
01/09 06:30 20.1 81 14.08 16.7 0 0 1018 0 30.9 33.3 59.3 156.4 164.3 569.4
01/09 06:20 20.2 81 14.16 16.8 0 0 1017.8 0 31.1 33.4 59.5 157.1 165.2 572.6
01/09 06:10 20.3 82 14.42 17.1 0 0 1017.7 0 31.6 33.8 60.6 159.9 168.8 585.0
01/09 06:00 20.4 80 14.15 16.8 0 0 1017.7 0 31.0 33.3 59.3 156.5 164.6 570.6
01/09 05:50 20.4 80 14.15 16.8 0 0 1017.6 0 31.0 33.3 59.3 156.5 164.6 570.5
01/09 05:40 20.5 78 13.88 16.5 0 0 1017.6 0 30.4 32.8 58.1 153.2 160.5 556.2
01/09 05:30 20.9 77 14.02 16.7 2 4 1017.4 0 30.7 32.9 58.4 154.0 161.6 560.3
01/09 05:20 21.6 73 13.84 16.6 2 4 1017.4 0 30.3 32.3 57.1 150.5 157.6 546.3
01/09 05:10 22.1 73 14.25 17 4 6 1017.3 0 31.1 32.8 58.4 154.2 162.3 562.9
01/09 05:00 22.2 72 14.13 16.9 6 7 1017.2 0 30.8 32.5 57.8 152.6 160.4 556.2
01/09 04:50 22.4 72 14.3 17.1 6 7 1017 0 31.2 32.8 58.4 154.2 162.4 563.1
01/09 04:40 22.7 72 14.55 17.4 6 7 1017 0 31.7 33.1 59.3 156.4 165.3 573.2
01/09 04:30 23 67 13.77 16.5 7 9 1016.9 0 30.0 31.6 55.7 147.0 153.7 532.9
01/09 04:20 22.9 67 13.69 16.4 6 9 1016.9 0 29.9 31.5 55.4 146.3 152.8 529.8
01/09 04:10 23.5 67 14.17 17 7 9 1016.8 0 30.8 32.1 57.0 150.5 158.2 548.7
01/09 04:00 23.4 71 14.93 17.8 7 9 1016.7 0 32.4 33.5 60.4 159.4 169.1 586.6
01/09 03:50 23.1 77 15.92 18.8 7 9 1016.7 0 34.6 35.3 65.0 171.6 184.1 638.7
01/09 03:40 23 80 16.44 19.4 6 7 1016.7 0 35.7 36.3 67.4 178.1 192.0 666.4
01/09 03:30 23.1 79 16.33 19.3 6 7 1016.7 0 35.4 36.1 66.8 176.5 190.1 659.8
01/09 03:20 23.5 78 16.49 19.4 6 9 1016.6 0 35.7 36.2 67.2 177.5 191.4 664.5
01/09 03:10 23.5 78 16.49 19.4 6 9 1016.6 0 35.7 36.2 67.2 177.5 191.4 664.5
01/09 03:00 23.6 77 16.38 19.3 6 9 1016.7 0 35.5 36.0 66.6 176.0 189.6 658.1
01/09 02:50 23.8 77 16.56 19.5 7 11 1016.8 0 35.9 36.2 67.3 177.7 191.7 665.6
01/09 02:40 24 76 16.53 19.5 7 9 1016.9 0 35.8 36.1 67.0 176.9 190.8 662.4
01/09 02:30 24.1 77 16.85 19.8 7 9 1016.9 0 36.5 36.6 68.3 180.5 195.3 678.0
01/09 02:20 24.2 76 16.72 19.7 7 11 1017 0 36.2 36.3 67.6 178.7 193.1 670.4
01/09 02:10 24 77 16.75 19.7 7 11 1017 0 36.3 36.5 68.0 179.6 194.1 673.7
01/09 02:00 23.9 78 16.87 19.8 6 7 1017.1 0 36.5 36.7 68.6 181.3 196.1 680.9
01/09 01:50 24.1 77 16.85 19.8 7 9 1017.2 0 36.5 36.6 68.3 180.6 195.3 678.1
01/09 01:40 24.1 77 16.85 19.8 7 11 1017.3 0 36.5 36.6 68.3 180.6 195.3 678.2
01/09 01:30 24.3 76 16.82 19.8 6 13 1017.3 0 36.4 36.5 68.0 179.7 194.4 674.8
01/09 01:20 24.4 76 16.91 19.9 7 11 1017.3 0 36.6 36.6 68.3 180.6 195.4 678.6
01/09 01:10 24.5 76 17.01 20 7 11 1017.4 0 36.8 36.7 68.7 181.6 196.7 682.9
01/09 01:00 24.6 75 16.88 19.9 7 9 1017.6 0 36.5 36.5 68.0 179.8 194.5 675.4
01/09 00:50 24.7 75 16.98 20 7 13 1017.6 0 36.7 36.6 68.4 180.8 195.7 679.7
01/09 00:40 24.9 75 17.17 20.2 7 13 1017.7 0 37.1 36.9 69.1 182.6 198.0 687.7
01/09 00:30 24.9 74 16.94 19.9 11 20 1017.6 0 36.6 36.5 68.0 179.8 194.6 675.8
01/09 00:20 25.1 73 16.9 19.9 15 24 1017.6 0 36.5 36.3 67.7 178.9 193.5 672.0
01/09 00:10 25.1 72 16.67 19.7 15 20 1017.6 0 36.0 35.9 66.7 176.1 190.2 660.4
01/09 00:00 25.1 71 16.44 19.5 13 22 1017.7 0 35.5 35.5 65.6 173.4 186.9 648.8
31/08 23:50 25.2 71 16.53 19.6 13 20 1017.6 0 35.7 35.6 66.0 174.3 187.9 652.4
31/08 23:40 25.4 69 16.24 19.3 13 22 1017.6 0 35.0 35.0 64.5 170.4 183.2 636.2
31/08 23:30 25.4 68 16.01 19.1 13 24 1017.5 0 34.6 34.6 63.5 167.7 179.9 624.7
31/08 23:20 25.3 67 15.69 18.7 11 17 1017.5 0 33.9 34.1 62.2 164.3 175.6 609.7
31/08 23:10 25.4 66 15.54 18.6 15 22 1017.5 0 33.6 33.8 61.5 162.3 173.3 601.6
31/08 23:00 25.3 63 14.75 17.7 13 24 1017.4 0 31.9 32.5 58.2 153.6 162.5 564.0
31/08 22:50 24.8 59 13.43 16.2 11 15 1017.4 0 29.2 30.4 53.1 140.0 145.7 505.1
31/08 22:40 24.6 55 12.38 15 9 13 1017.4 0 27.0 28.8 49.0 129.1 132.2 458.1
31/08 22:30 24.6 54 12.15 14.7 9 15 1017.4 0 26.5 28.4 48.1 126.7 129.3 447.8
31/08 22:20 24.7 54 12.22 14.8 11 15 1017.2 0 26.6 28.5 48.3 127.3 130.0 450.3
31/08 22:10 25 53 12.2 14.8 11 15 1017.2 0 26.6 28.4 48.0 126.6 129.2 447.7
31/08 22:00 25.2 51 11.87 14.3 11 15 1017.1 0 25.9 27.8 46.6 122.8 124.7 431.9
31/08 21:50 25.3 51 11.94 14.4 11 13 1017 0 26.0 27.9 46.9 123.4 125.4 434.4

Last Refresh: 01-Sep-2026 14:31:09

Bureau of Meteorology